sensor_id;sensor_type;location;lat;lon;timestamp;pressure;altitude;pressure_sealevel;temperature;humidity
71344;BME280;59146;43.850;25.948;2024-02-23T00:01:04;100818.25;;;6.47;83.93
71344;BME280;59146;43.850;25.948;2024-02-23T00:03:30;100863.66;;;6.80;83.55
71344;BME280;59146;43.850;25.948;2024-02-23T00:05:55;100802.06;;;6.62;83.14
71344;BME280;59146;43.850;25.948;2024-02-23T00:08:21;100780.91;;;6.51;83.06
71344;BME280;59146;43.850;25.948;2024-02-23T00:10:46;100836.53;;;6.87;83.35
71344;BME280;59146;43.850;25.948;2024-02-23T00:13:12;100779.31;;;6.25;84.34
71344;BME280;59146;43.850;25.948;2024-02-23T00:15:37;100849.91;;;6.78;87.32
71344;BME280;59146;43.850;25.948;2024-02-23T00:18:02;100741.66;;;6.15;88.41
71344;BME280;59146;43.850;25.948;2024-02-23T00:20:29;100856.66;;;6.82;89.04
71344;BME280;59146;43.850;25.948;2024-02-23T00:22:55;100835.63;;;6.67;88.36
71344;BME280;59146;43.850;25.948;2024-02-23T00:25:20;100817.63;;;6.84;86.68
71344;BME280;59146;43.850;25.948;2024-02-23T00:27:46;100788.38;;;6.80;85.40
71344;BME280;59146;43.850;25.948;2024-02-23T00:30:13;100839.00;;;7.32;84.33
71344;BME280;59146;43.850;25.948;2024-02-23T00:32:38;100823.97;;;7.18;84.06
71344;BME280;59146;43.850;25.948;2024-02-23T00:35:04;100796.78;;;7.07;84.86
71344;BME280;59146;43.850;25.948;2024-02-23T00:37:30;100678.31;;;6.43;84.35
71344;BME280;59146;43.850;25.948;2024-02-23T00:40:04;100829.41;;;7.34;85.03
71344;BME280;59146;43.850;25.948;2024-02-23T00:42:30;100837.97;;;7.16;87.20
71344;BME280;59146;43.850;25.948;2024-02-23T00:44:55;100786.16;;;6.91;85.44
71344;BME280;59146;43.850;25.948;2024-02-23T00:47:21;100668.66;;;6.24;86.65
71344;BME280;59146;43.850;25.948;2024-02-23T00:49:46;100769.25;;;7.03;85.22
71344;BME280;59146;43.850;25.948;2024-02-23T00:52:12;100820.88;;;7.51;83.62
71344;BME280;59146;43.850;25.948;2024-02-23T00:54:37;100805.03;;;7.37;82.47
71344;BME280;59146;43.850;25.948;2024-02-23T00:57:02;100786.78;;;7.38;81.32
71344;BME280;59146;43.850;25.948;2024-02-23T00:59:28;100821.09;;;7.66;80.49
71344;BME280;59146;43.850;25.948;2024-02-23T01:01:54;100756.06;;;7.48;80.01
71344;BME280;59146;43.850;25.948;2024-02-23T01:04:20;100730.00;;;7.09;80.51
71344;BME280;59146;43.850;25.948;2024-02-23T01:06:46;100792.94;;;7.36;81.45
71344;BME280;59146;43.850;25.948;2024-02-23T01:09:11;100790.75;;;7.47;82.51
71344;BME280;59146;43.850;25.948;2024-02-23T01:11:37;100772.16;;;7.36;84.26
71344;BME280;59146;43.850;25.948;2024-02-23T01:14:02;100738.38;;;6.95;85.51
71344;BME280;59146;43.850;25.948;2024-02-23T01:16:28;100749.34;;;6.82;86.53
71344;BME280;59146;43.850;25.948;2024-02-23T01:18:53;100802.56;;;7.13;87.10
71344;BME280;59146;43.850;25.948;2024-02-23T01:21:19;100680.31;;;6.56;86.68
71344;BME280;59146;43.850;25.948;2024-02-23T01:23:44;100743.44;;;6.78;85.71
71344;BME280;59146;43.850;25.948;2024-02-23T01:26:09;100747.19;;;6.91;83.91
71344;BME280;59146;43.850;25.948;2024-02-23T01:28:35;100776.84;;;7.07;83.41
71344;BME280;59146;43.850;25.948;2024-02-23T01:31:00;100717.66;;;6.94;81.63
71344;BME280;59146;43.850;25.948;2024-02-23T01:33:26;100713.31;;;7.14;79.53
71344;BME280;59146;43.850;25.948;2024-02-23T01:35:51;100749.72;;;7.33;78.34
71344;BME280;59146;43.850;25.948;2024-02-23T01:38:17;100554.78;;;6.18;78.57
71344;BME280;59146;43.850;25.948;2024-02-23T01:40:46;100736.69;;;7.35;78.65
71344;BME280;59146;43.850;25.948;2024-02-23T01:43:12;100752.53;;;7.49;77.87
71344;BME280;59146;43.850;25.948;2024-02-23T01:45:38;100701.69;;;7.23;77.67
71344;BME280;59146;43.850;25.948;2024-02-23T01:48:04;100778.13;;;7.58;78.13
71344;BME280;59146;43.850;25.948;2024-02-23T01:50:30;100708.91;;;7.16;78.22
71344;BME280;59146;43.850;25.948;2024-02-23T01:53:00;100698.38;;;7.19;77.47
71344;BME280;59146;43.850;25.948;2024-02-23T01:55:27;100703.63;;;7.38;76.04
71344;BME280;59146;43.850;25.948;2024-02-23T01:57:53;100733.31;;;7.33;76.33
71344;BME280;59146;43.850;25.948;2024-02-23T02:00:20;100700.00;;;7.02;76.08
71344;BME280;59146;43.850;25.948;2024-02-23T02:02:48;100738.97;;;7.22;76.55
71344;BME280;59146;43.850;25.948;2024-02-23T02:05:13;100735.66;;;7.39;75.58
71344;BME280;59146;43.850;25.948;2024-02-23T02:07:40;100709.31;;;7.07;75.98
71344;BME280;59146;43.850;25.948;2024-02-23T02:10:08;100720.53;;;7.08;75.91
71344;BME280;59146;43.850;25.948;2024-02-23T02:12:35;100791.16;;;7.56;75.84
71344;BME280;59146;43.850;25.948;2024-02-23T02:15:01;100760.75;;;7.58;74.97
71344;BME280;59146;43.850;25.948;2024-02-23T02:17:29;100728.53;;;7.03;75.58
71344;BME280;59146;43.850;25.948;2024-02-23T02:19:57;100731.38;;;7.17;75.72
71344;BME280;59146;43.850;25.948;2024-02-23T02:22:23;100733.78;;;7.22;75.54
71344;BME280;59146;43.850;25.948;2024-02-23T02:24:49;100669.25;;;6.93;74.90
71344;BME280;59146;43.850;25.948;2024-02-23T02:27:14;100755.78;;;7.54;74.13
71344;BME280;59146;43.850;25.948;2024-02-23T02:29:40;100747.88;;;7.37;74.36
71344;BME280;59146;43.850;25.948;2024-02-23T02:32:05;100716.88;;;7.32;74.26
71344;BME280;59146;43.850;25.948;2024-02-23T02:34:31;100708.81;;;7.38;73.59
71344;BME280;59146;43.850;25.948;2024-02-23T02:36:57;100728.53;;;7.62;72.47
71344;BME280;59146;43.850;25.948;2024-02-23T02:39:22;100761.50;;;7.80;72.13
71344;BME280;59146;43.850;25.948;2024-02-23T02:41:48;100636.97;;;6.98;72.40
71344;BME280;59146;43.850;25.948;2024-02-23T02:44:14;100779.31;;;8.08;71.97
71344;BME280;59146;43.850;25.948;2024-02-23T02:46:40;100760.53;;;8.20;70.23
71344;BME280;59146;43.850;25.948;2024-02-23T02:49:06;100780.56;;;8.18;69.95
71344;BME280;59146;43.850;25.948;2024-02-23T02:51:31;100789.53;;;8.31;69.55
71344;BME280;59146;43.850;25.948;2024-02-23T02:53:57;100767.78;;;8.32;69.25
71344;BME280;59146;43.850;25.948;2024-02-23T02:56:22;100774.09;;;8.45;68.46
71344;BME280;59146;43.850;25.948;2024-02-23T02:58:48;100779.03;;;8.51;67.67
71344;BME280;59146;43.850;25.948;2024-02-23T03:01:14;100651.72;;;7.74;67.84
71344;BME280;59146;43.850;25.948;2024-02-23T03:03:39;100717.25;;;8.18;68.17
71344;BME280;59146;43.850;25.948;2024-02-23T03:06:04;100751.44;;;8.47;68.08
71344;BME280;59146;43.850;25.948;2024-02-23T03:08:31;100781.75;;;8.67;67.04
71344;BME280;59146;43.850;25.948;2024-02-23T03:10:56;100701.56;;;8.02;67.91
71344;BME280;59146;43.850;25.948;2024-02-23T03:13:22;100786.06;;;8.49;67.98
71344;BME280;59146;43.850;25.948;2024-02-23T03:15:48;100756.56;;;8.49;67.34
71344;BME280;59146;43.850;25.948;2024-02-23T03:18:13;100790.06;;;8.73;66.53
71344;BME280;59146;43.850;25.948;2024-02-23T03:20:41;100767.84;;;8.49;66.53
71344;BME280;59146;43.850;25.948;2024-02-23T03:23:11;100713.03;;;8.15;66.68
71344;BME280;59146;43.850;25.948;2024-02-23T03:25:36;100750.50;;;8.48;66.29
71344;BME280;59146;43.850;25.948;2024-02-23T03:28:02;100754.38;;;8.58;66.24
71344;BME280;59146;43.850;25.948;2024-02-23T03:30:27;100793.22;;;8.80;65.58
71344;BME280;59146;43.850;25.948;2024-02-23T03:32:53;100794.00;;;8.65;66.58
71344;BME280;59146;43.850;25.948;2024-02-23T03:35:18;100720.34;;;8.27;66.42
71344;BME280;59146;43.850;25.948;2024-02-23T03:37:44;100753.44;;;8.59;65.95
71344;BME280;59146;43.850;25.948;2024-02-23T03:40:10;100760.56;;;8.56;65.52
71344;BME280;59146;43.850;25.948;2024-02-23T03:42:36;100705.72;;;8.23;65.92
71344;BME280;59146;43.850;25.948;2024-02-23T03:45:01;100783.75;;;8.79;66.18
71344;BME280;59146;43.850;25.948;2024-02-23T03:47:27;100757.00;;;8.75;65.28
71344;BME280;59146;43.850;25.948;2024-02-23T03:49:54;100689.88;;;8.46;64.70
71344;BME280;59146;43.850;25.948;2024-02-23T03:52:19;100717.94;;;8.58;64.78
71344;BME280;59146;43.850;25.948;2024-02-23T03:54:45;100727.56;;;8.56;64.95
71344;BME280;59146;43.850;25.948;2024-02-23T03:57:10;100619.63;;;7.92;65.05
71344;BME280;59146;43.850;25.948;2024-02-23T03:59:36;100803.47;;;9.02;64.66
71344;BME280;59146;43.850;25.948;2024-02-23T04:02:02;100795.25;;;8.92;64.93
71344;BME280;59146;43.850;25.948;2024-02-23T04:04:28;100687.75;;;8.19;65.53
71344;BME280;59146;43.850;25.948;2024-02-23T04:06:53;100773.97;;;8.65;66.23
71344;BME280;59146;43.850;25.948;2024-02-23T04:09:19;100797.91;;;8.91;65.25
71344;BME280;59146;43.850;25.948;2024-02-23T04:11:47;100706.00;;;8.36;65.47
71344;BME280;59146;43.850;25.948;2024-02-23T04:14:13;100738.81;;;8.40;65.81
71344;BME280;59146;43.850;25.948;2024-02-23T04:16:39;100773.84;;;8.68;65.88
71344;BME280;59146;43.850;25.948;2024-02-23T04:19:04;100768.81;;;8.82;65.00
71344;BME280;59146;43.850;25.948;2024-02-23T04:21:29;100628.84;;;7.99;64.77
71344;BME280;59146;43.850;25.948;2024-02-23T04:23:55;100787.50;;;8.91;64.70
71344;BME280;59146;43.850;25.948;2024-02-23T04:26:20;100788.72;;;9.01;64.74
71344;BME280;59146;43.850;25.948;2024-02-23T04:28:46;100710.59;;;8.66;64.11
71344;BME280;59146;43.850;25.948;2024-02-23T04:31:11;100778.09;;;9.22;63.42
71344;BME280;59146;43.850;25.948;2024-02-23T04:33:37;100760.56;;;9.09;63.30
71344;BME280;59146;43.850;25.948;2024-02-23T04:36:04;100782.94;;;9.13;63.45
71344;BME280;59146;43.850;25.948;2024-02-23T04:38:30;100795.25;;;9.26;63.34
71344;BME280;59146;43.850;25.948;2024-02-23T04:40:56;100724.44;;;9.01;62.65
71344;BME280;59146;43.850;25.948;2024-02-23T04:43:22;100771.19;;;9.21;62.07
71344;BME280;59146;43.850;25.948;2024-02-23T04:45:48;100779.69;;;9.25;62.38
71344;BME280;59146;43.850;25.948;2024-02-23T04:48:13;100789.06;;;9.29;62.59
71344;BME280;59146;43.850;25.948;2024-02-23T04:50:39;100787.50;;;9.42;62.09
71344;BME280;59146;43.850;25.948;2024-02-23T04:53:04;100793.72;;;9.22;62.30
71344;BME280;59146;43.850;25.948;2024-02-23T04:55:30;100762.69;;;9.01;62.61
71344;BME280;59146;43.850;25.948;2024-02-23T04:57:55;100779.88;;;9.05;63.04
71344;BME280;59146;43.850;25.948;2024-02-23T05:00:21;100786.00;;;9.21;62.51
71344;BME280;59146;43.850;25.948;2024-02-23T05:02:47;100708.81;;;8.84;62.17
71344;BME280;59146;43.850;25.948;2024-02-23T05:05:12;100742.63;;;8.86;62.41
71344;BME280;59146;43.850;25.948;2024-02-23T05:07:38;100746.34;;;8.80;62.88
71344;BME280;59146;43.850;25.948;2024-02-23T05:10:04;100768.28;;;9.10;62.49
71344;BME280;59146;43.850;25.948;2024-02-23T05:12:29;100722.31;;;8.92;61.82
71344;BME280;59146;43.850;25.948;2024-02-23T05:14:54;100812.81;;;9.40;61.45
71344;BME280;59146;43.850;25.948;2024-02-23T05:17:20;100737.78;;;8.78;62.37
71344;BME280;59146;43.850;25.948;2024-02-23T05:19:45;100750.91;;;8.94;62.28
71344;BME280;59146;43.850;25.948;2024-02-23T05:22:12;100747.13;;;8.99;61.29
71344;BME280;59146;43.850;25.948;2024-02-23T05:24:37;100808.28;;;9.43;60.52
71344;BME280;59146;43.850;25.948;2024-02-23T05:27:03;100753.81;;;9.05;61.14
71344;BME280;59146;43.850;25.948;2024-02-23T05:29:28;100824.91;;;9.41;61.54
71344;BME280;59146;43.850;25.948;2024-02-23T05:31:54;100754.63;;;9.05;61.39
71344;BME280;59146;43.850;25.948;2024-02-23T05:34:20;100752.41;;;9.32;60.03
71344;BME280;59146;43.850;25.948;2024-02-23T05:36:46;100749.41;;;9.22;59.13
71344;BME280;59146;43.850;25.948;2024-02-23T05:39:13;100668.16;;;8.64;59.39
71344;BME280;59146;43.850;25.948;2024-02-23T05:41:41;100817.31;;;9.71;59.37
71344;BME280;59146;43.850;25.948;2024-02-23T05:44:06;100814.00;;;9.84;59.02
71344;BME280;59146;43.850;25.948;2024-02-23T05:46:36;100798.00;;;9.90;58.44
71344;BME280;59146;43.850;25.948;2024-02-23T05:49:02;100748.38;;;9.59;57.99
71344;BME280;59146;43.850;25.948;2024-02-23T05:51:29;100781.25;;;9.61;58.28
71344;BME280;59146;43.850;25.948;2024-02-23T05:53:55;100796.16;;;9.92;58.52
71344;BME280;59146;43.850;25.948;2024-02-23T05:56:20;100787.00;;;10.01;58.55
71344;BME280;59146;43.850;25.948;2024-02-23T05:58:46;100832.53;;;10.28;63.57
71344;BME280;59146;43.850;25.948;2024-02-23T06:01:11;100819.31;;;9.98;63.24
71344;BME280;59146;43.850;25.948;2024-02-23T06:03:37;100838.25;;;10.02;63.72
71344;BME280;59146;43.850;25.948;2024-02-23T06:06:07;100854.56;;;10.22;59.73
71344;BME280;59146;43.850;25.948;2024-02-23T06:08:33;100795.34;;;10.07;57.92
71344;BME280;59146;43.850;25.948;2024-02-23T06:10:59;100856.72;;;10.78;56.21
71344;BME280;59146;43.850;25.948;2024-02-23T06:13:25;100807.09;;;10.63;54.69
71344;BME280;59146;43.850;25.948;2024-02-23T06:15:50;100702.31;;;10.06;55.34
71344;BME280;59146;43.850;25.948;2024-02-23T06:18:16;100843.84;;;11.64;53.77
71344;BME280;59146;43.850;25.948;2024-02-23T06:20:41;100839.00;;;12.43;50.75
71344;BME280;59146;43.850;25.948;2024-02-23T06:23:07;100857.03;;;13.29;48.39
71344;BME280;59146;43.850;25.948;2024-02-23T06:25:32;100847.78;;;13.23;47.54
71344;BME280;59146;43.850;25.948;2024-02-23T06:27:58;100849.03;;;13.30;47.09
71344;BME280;59146;43.850;25.948;2024-02-23T06:30:23;100867.91;;;13.75;46.34
71344;BME280;59146;43.850;25.948;2024-02-23T06:32:49;100849.75;;;13.59;46.53
71344;BME280;59146;43.850;25.948;2024-02-23T06:35:14;100734.94;;;12.98;45.99
71344;BME280;59146;43.850;25.948;2024-02-23T06:37:40;100720.59;;;12.38;47.47
71344;BME280;59146;43.850;25.948;2024-02-23T06:40:06;100828.47;;;12.71;48.14
71344;BME280;59146;43.850;25.948;2024-02-23T06:42:33;100788.38;;;13.22;47.12
71344;BME280;59146;43.850;25.948;2024-02-23T06:44:58;100794.19;;;13.78;45.56
71344;BME280;59146;43.850;25.948;2024-02-23T06:47:23;100826.00;;;14.11;44.81
71344;BME280;59146;43.850;25.948;2024-02-23T06:49:50;100842.19;;;14.05;45.02
71344;BME280;59146;43.850;25.948;2024-02-23T06:52:16;100845.66;;;14.18;45.10
71344;BME280;59146;43.850;25.948;2024-02-23T06:54:41;100838.53;;;14.56;44.50
71344;BME280;59146;43.850;25.948;2024-02-23T06:57:07;100870.63;;;15.08;42.91
71344;BME280;59146;43.850;25.948;2024-02-23T06:59:32;100852.84;;;15.12;42.87
71344;BME280;59146;43.850;25.948;2024-02-23T07:01:58;100867.28;;;14.83;44.22
71344;BME280;59146;43.850;25.948;2024-02-23T07:04:23;100831.44;;;14.69;43.35
71344;BME280;59146;43.850;25.948;2024-02-23T07:06:50;100832.91;;;15.21;42.60
71344;BME280;59146;43.850;25.948;2024-02-23T07:09:15;100866.28;;;14.96;43.09
71344;BME280;59146;43.850;25.948;2024-02-23T07:11:41;100840.94;;;14.95;43.77
71344;BME280;59146;43.850;25.948;2024-02-23T07:14:09;100869.16;;;14.81;43.95
71344;BME280;59146;43.850;25.948;2024-02-23T07:16:38;100875.16;;;15.06;43.90
71344;BME280;59146;43.850;25.948;2024-02-23T07:19:07;100863.63;;;15.44;43.62
71344;BME280;59146;43.850;25.948;2024-02-23T07:21:33;100820.19;;;15.14;44.27
71344;BME280;59146;43.850;25.948;2024-02-23T07:23:59;100830.25;;;14.50;46.18
71344;BME280;59146;43.850;25.948;2024-02-23T07:26:24;100808.94;;;14.42;45.94
71344;BME280;59146;43.850;25.948;2024-02-23T07:28:50;100869.63;;;14.98;45.47
71344;BME280;59146;43.850;25.948;2024-02-23T07:31:15;100858.31;;;14.85;45.12
71344;BME280;59146;43.850;25.948;2024-02-23T07:33:42;100848.88;;;14.83;44.47
71344;BME280;59146;43.850;25.948;2024-02-23T07:36:14;100863.91;;;15.04;45.07
71344;BME280;59146;43.850;25.948;2024-02-23T07:38:39;100827.84;;;14.47;45.90
71344;BME280;59146;43.850;25.948;2024-02-23T07:41:05;100808.53;;;14.35;45.90
71344;BME280;59146;43.850;25.948;2024-02-23T07:43:30;100871.97;;;14.90;45.15
71344;BME280;59146;43.850;25.948;2024-02-23T07:45:56;100815.06;;;14.29;45.74
71344;BME280;59146;43.850;25.948;2024-02-23T07:48:21;100882.81;;;14.86;45.24
71344;BME280;59146;43.850;25.948;2024-02-23T07:50:47;100832.19;;;14.71;44.66
71344;BME280;59146;43.850;25.948;2024-02-23T07:53:12;100884.06;;;15.17;43.61
71344;BME280;59146;43.850;25.948;2024-02-23T07:55:38;100845.44;;;14.93;43.12
71344;BME280;59146;43.850;25.948;2024-02-23T07:58:03;100829.91;;;14.54;43.07
71344;BME280;59146;43.850;25.948;2024-02-23T08:00:29;100882.63;;;14.89;42.63
71344;BME280;59146;43.850;25.948;2024-02-23T08:02:54;100860.22;;;14.83;41.99
71344;BME280;59146;43.850;25.948;2024-02-23T08:05:24;100880.47;;;14.94;42.58
71344;BME280;59146;43.850;25.948;2024-02-23T08:07:49;100872.63;;;14.58;42.31
71344;BME280;59146;43.850;25.948;2024-02-23T08:10:15;100895.72;;;15.01;42.16
71344;BME280;59146;43.850;25.948;2024-02-23T08:12:40;100875.97;;;14.60;41.88
71344;BME280;59146;43.850;25.948;2024-02-23T08:15:06;100878.63;;;14.83;40.92
71344;BME280;59146;43.850;25.948;2024-02-23T08:17:32;100876.50;;;14.88;40.96
71344;BME280;59146;43.850;25.948;2024-02-23T08:19:57;100851.47;;;14.59;40.85
71344;BME280;59146;43.850;25.948;2024-02-23T08:22:23;100893.63;;;14.70;40.97
71344;BME280;59146;43.850;25.948;2024-02-23T08:24:49;100895.13;;;14.85;41.15
71344;BME280;59146;43.850;25.948;2024-02-23T08:27:15;100893.63;;;14.70;41.25
71344;BME280;59146;43.850;25.948;2024-02-23T08:29:40;100854.22;;;14.58;41.85
71344;BME280;59146;43.850;25.948;2024-02-23T08:32:06;100862.47;;;14.64;41.24
71344;BME280;59146;43.850;25.948;2024-02-23T08:34:32;100895.53;;;14.92;40.39
71344;BME280;59146;43.850;25.948;2024-02-23T08:36:57;100886.13;;;15.00;40.38
71344;BME280;59146;43.850;25.948;2024-02-23T08:39:23;100841.41;;;14.53;41.35
71344;BME280;59146;43.850;25.948;2024-02-23T08:41:48;100856.00;;;14.57;41.59
71344;BME280;59146;43.850;25.948;2024-02-23T08:44:16;100821.31;;;14.52;41.61
71344;BME280;59146;43.850;25.948;2024-02-23T08:46:42;100859.09;;;14.98;40.98
71344;BME280;59146;43.850;25.948;2024-02-23T08:49:07;100827.47;;;14.87;40.66
71344;BME280;59146;43.850;25.948;2024-02-23T08:51:33;100840.75;;;15.09;40.44
71344;BME280;59146;43.850;25.948;2024-02-23T08:53:58;100891.56;;;15.34;40.77
71344;BME280;59146;43.850;25.948;2024-02-23T08:56:29;100881.94;;;15.45;40.47
71344;BME280;59146;43.850;25.948;2024-02-23T08:58:55;100873.00;;;15.59;40.51
71344;BME280;59146;43.850;25.948;2024-02-23T09:01:20;100882.84;;;15.68;40.15
71344;BME280;59146;43.850;25.948;2024-02-23T09:03:46;100875.16;;;15.54;40.18
71344;BME280;59146;43.850;25.948;2024-02-23T09:06:11;100819.84;;;15.43;40.35
71344;BME280;59146;43.850;25.948;2024-02-23T09:08:37;100884.22;;;15.84;39.78
71344;BME280;59146;43.850;25.948;2024-02-23T09:11:03;100883.69;;;15.68;40.65
71344;BME280;59146;43.850;25.948;2024-02-23T09:13:28;100803.97;;;15.21;40.63
71344;BME280;59146;43.850;25.948;2024-02-23T09:15:55;100897.41;;;15.96;39.89
71344;BME280;59146;43.850;25.948;2024-02-23T09:18:21;100864.09;;;15.95;39.64
71344;BME280;59146;43.850;25.948;2024-02-23T09:20:46;100865.66;;;15.86;39.64
71344;BME280;59146;43.850;25.948;2024-02-23T09:23:12;100852.00;;;15.81;40.14
71344;BME280;59146;43.850;25.948;2024-02-23T09:25:39;100893.72;;;15.98;39.34
71344;BME280;59146;43.850;25.948;2024-02-23T09:28:04;100839.28;;;15.64;39.87
71344;BME280;59146;43.850;25.948;2024-02-23T09:30:33;100873.97;;;15.69;39.95
71344;BME280;59146;43.850;25.948;2024-02-23T09:32:58;100816.44;;;15.41;39.25
71344;BME280;59146;43.850;25.948;2024-02-23T09:35:24;100889.25;;;15.99;39.27
71344;BME280;59146;43.850;25.948;2024-02-23T09:37:49;100893.72;;;16.20;38.53
71344;BME280;59146;43.850;25.948;2024-02-23T09:40:15;100896.13;;;16.23;38.54
71344;BME280;59146;43.850;25.948;2024-02-23T09:42:42;100843.16;;;15.93;38.44
71344;BME280;59146;43.850;25.948;2024-02-23T09:45:08;100874.16;;;16.01;38.84
71344;BME280;59146;43.850;25.948;2024-02-23T09:47:36;100857.28;;;16.03;39.06
71344;BME280;59146;43.850;25.948;2024-02-23T09:50:04;100889.97;;;16.01;39.50
71344;BME280;59146;43.850;25.948;2024-02-23T09:52:31;100867.09;;;15.90;38.99
71344;BME280;59146;43.850;25.948;2024-02-23T09:54:57;100856.22;;;16.17;38.53
71344;BME280;59146;43.850;25.948;2024-02-23T09:57:23;100876.00;;;16.22;38.25
71344;BME280;59146;43.850;25.948;2024-02-23T09:59:50;100871.66;;;16.32;37.94
71344;BME280;59146;43.850;25.948;2024-02-23T10:02:17;100827.81;;;16.20;37.93
71344;BME280;59146;43.850;25.948;2024-02-23T10:04:44;100828.88;;;16.07;38.07
71344;BME280;59146;43.850;25.948;2024-02-23T10:07:10;100870.47;;;16.36;38.51
71344;BME280;59146;43.850;25.948;2024-02-23T10:09:36;100857.06;;;16.28;37.65
71344;BME280;59146;43.850;25.948;2024-02-23T10:12:02;100870.84;;;16.65;37.40
71344;BME280;59146;43.850;25.948;2024-02-23T10:14:28;100875.72;;;16.81;37.24
71344;BME280;59146;43.850;25.948;2024-02-23T10:16:54;100859.66;;;16.84;37.78
71344;BME280;59146;43.850;25.948;2024-02-23T10:19:21;100824.69;;;16.59;37.33
71344;BME280;59146;43.850;25.948;2024-02-23T10:21:47;100860.28;;;17.08;36.55
71344;BME280;59146;43.850;25.948;2024-02-23T10:24:15;100795.06;;;16.67;37.16
71344;BME280;59146;43.850;25.948;2024-02-23T10:26:44;100867.28;;;17.29;36.28
71344;BME280;59146;43.850;25.948;2024-02-23T10:29:10;100853.50;;;17.26;35.92
71344;BME280;59146;43.850;25.948;2024-02-23T10:31:36;100855.34;;;16.72;36.32
71344;BME280;59146;43.850;25.948;2024-02-23T10:34:08;100844.88;;;16.92;35.90
71344;BME280;59146;43.850;25.948;2024-02-23T10:36:42;100824.84;;;17.01;36.10
71344;BME280;59146;43.850;25.948;2024-02-23T10:39:09;100844.25;;;17.31;35.74
71344;BME280;59146;43.850;25.948;2024-02-23T10:41:35;100840.69;;;17.53;35.14
71344;BME280;59146;43.850;25.948;2024-02-23T10:44:04;100827.06;;;17.58;34.07
71344;BME280;59146;43.850;25.948;2024-02-23T10:46:31;100813.47;;;17.62;33.82
71344;BME280;59146;43.850;25.948;2024-02-23T10:48:58;100756.41;;;17.29;34.18
71344;BME280;59146;43.850;25.948;2024-02-23T10:51:28;100823.28;;;17.51;33.95
71344;BME280;59146;43.850;25.948;2024-02-23T10:53:54;100829.25;;;17.32;33.73
71344;BME280;59146;43.850;25.948;2024-02-23T10:56:20;100812.59;;;17.52;33.83
71344;BME280;59146;43.850;25.948;2024-02-23T10:58:48;100810.06;;;17.30;34.25
71344;BME280;59146;43.850;25.948;2024-02-23T11:01:14;100829.50;;;17.29;34.09
71344;BME280;59146;43.850;25.948;2024-02-23T11:03:42;100771.34;;;17.19;33.60
71344;BME280;59146;43.850;25.948;2024-02-23T11:06:12;100784.41;;;17.41;33.78
71344;BME280;59146;43.850;25.948;2024-02-23T11:08:37;100816.78;;;17.55;33.61
71344;BME280;59146;43.850;25.948;2024-02-23T11:11:10;100754.78;;;16.97;33.07
71344;BME280;59146;43.850;25.948;2024-02-23T11:13:40;100777.91;;;17.04;33.50
71344;BME280;59146;43.850;25.948;2024-02-23T11:16:07;100783.13;;;17.15;33.18
71344;BME280;59146;43.850;25.948;2024-02-23T11:18:39;100803.59;;;17.55;32.49
71344;BME280;59146;43.850;25.948;2024-02-23T11:21:05;100806.66;;;17.80;32.80
71344;BME280;59146;43.850;25.948;2024-02-23T11:24:03;100812.00;;;17.69;32.40
71344;BME280;59146;43.850;25.948;2024-02-23T11:26:29;100806.84;;;17.88;32.50
71344;BME280;59146;43.850;25.948;2024-02-23T11:28:55;100786.94;;;17.64;33.11
71344;BME280;59146;43.850;25.948;2024-02-23T11:31:25;100796.38;;;17.57;32.61
71344;BME280;59146;43.850;25.948;2024-02-23T11:33:55;100802.56;;;17.76;32.83
71344;BME280;59146;43.850;25.948;2024-02-23T11:36:50;100793.34;;;17.91;32.49
71344;BME280;59146;43.850;25.948;2024-02-23T11:39:16;100762.44;;;17.62;32.04
71344;BME280;59146;43.850;25.948;2024-02-23T11:41:42;100805.75;;;18.00;31.53
71344;BME280;59146;43.850;25.948;2024-02-23T11:44:08;100793.22;;;17.93;31.75
71344;BME280;59146;43.850;25.948;2024-02-23T11:46:34;100796.84;;;18.01;31.77
71344;BME280;59146;43.850;25.948;2024-02-23T11:48:59;100735.88;;;17.54;32.28
71344;BME280;59146;43.850;25.948;2024-02-23T11:51:25;100746.84;;;17.79;31.97
71344;BME280;59146;43.850;25.948;2024-02-23T11:53:55;100771.16;;;18.03;31.63
71344;BME280;59146;43.850;25.948;2024-02-23T11:56:23;100719.50;;;17.99;31.29
71344;BME280;59146;43.850;25.948;2024-02-23T11:58:49;100772.22;;;18.41;31.43
71344;BME280;59146;43.850;25.948;2024-02-23T12:01:14;100788.44;;;18.57;31.16
71344;BME280;59146;43.850;25.948;2024-02-23T12:03:40;100761.84;;;18.58;30.44
71344;BME280;59146;43.850;25.948;2024-02-23T12:06:07;100773.13;;;18.51;31.75
71344;BME280;59146;43.850;25.948;2024-02-23T12:08:33;100731.22;;;18.06;32.34
71344;BME280;59146;43.850;25.948;2024-02-23T12:11:08;100778.75;;;18.37;31.62
71344;BME280;59146;43.850;25.948;2024-02-23T12:13:35;100775.56;;;18.43;32.02
71344;BME280;59146;43.850;25.948;2024-02-23T12:16:01;100763.84;;;18.36;31.05
71344;BME280;59146;43.850;25.948;2024-02-23T12:18:27;100768.25;;;18.56;31.30
71344;BME280;59146;43.850;25.948;2024-02-23T12:21:00;100772.88;;;18.82;31.61
71344;BME280;59146;43.850;25.948;2024-02-23T12:23:27;100777.44;;;18.71;31.23
71344;BME280;59146;43.850;25.948;2024-02-23T12:26:01;100753.34;;;19.02;30.39
71344;BME280;59146;43.850;25.948;2024-02-23T12:28:27;100748.31;;;19.28;29.09
71344;BME280;59146;43.850;25.948;2024-02-23T12:31:02;100754.19;;;19.22;29.15
71344;BME280;59146;43.850;25.948;2024-02-23T12:33:29;100762.63;;;19.54;28.78
71344;BME280;59146;43.850;25.948;2024-02-23T12:36:02;100755.16;;;19.40;28.30
71344;BME280;59146;43.850;25.948;2024-02-23T12:38:28;100732.06;;;18.94;29.61
71344;BME280;59146;43.850;25.948;2024-02-23T12:40:54;100759.47;;;19.13;30.13